Time;durP1;ratioP1;P1;durP2;ratioP2;P2;SDS_P1;SDS_P2;PMS_P1;PMS_P2;Temp;Humidity;BMP_temperature;BMP_pressure;BME280_temperature;BME280_humidity;BME280_pressure;Samples;Min_cycle;Max_cycle;Signal;HPM_P1;HPM_P2
2023/04/14 00:01:27;;;;;;;8.30;5.18;;;3.40;99.90;;;;;;4987637;28;20044;-77
2023/04/14 00:03:52;;;;;;;9.10;5.10;;;3.30;99.90;;;;;;5015991;28;20041;-77
2023/04/14 00:06:18;;;;;;;11.07;5.22;;;3.10;99.90;;;;;;4964601;28;20050;-77
2023/04/14 00:08:44;;;;;;;11.75;3.70;;;3.10;99.90;;;;;;4935465;28;20054;-77
2023/04/14 00:11:10;;;;;;;9.70;5.80;;;3.00;99.90;;;;;;4970830;28;20045;-77
2023/04/14 00:13:35;;;;;;;12.68;6.25;;;3.00;99.90;;;;;;4993954;28;20128;-77
2023/04/14 00:16:01;;;;;;;11.63;6.68;;;3.00;99.90;;;;;;4956324;28;20035;-77
2023/04/14 00:18:27;;;;;;;11.82;5.82;;;2.90;99.90;;;;;;4935282;29;20031;-78
2023/04/14 00:20:53;;;;;;;14.80;6.60;;;2.90;99.90;;;;;;4961125;28;20497;-77
2023/04/14 00:23:19;;;;;;;9.90;5.78;;;2.90;99.90;;;;;;5015863;28;20672;-77
2023/04/14 00:25:45;;;;;;;11.63;6.55;;;2.90;99.90;;;;;;4946854;28;20134;-77
2023/04/14 00:28:11;;;;;;;11.38;6.47;;;2.90;99.90;;;;;;4974548;28;20093;-77
2023/04/14 00:30:37;;;;;;;12.35;6.53;;;2.90;99.90;;;;;;5017016;28;20459;-78
2023/04/14 00:33:02;;;;;;;13.88;7.03;;;2.90;99.90;;;;;;4986768;28;20036;-78
2023/04/14 00:35:28;;;;;;;11.75;6.30;;;2.90;99.90;;;;;;4964086;28;20042;-77
2023/04/14 00:37:55;;;;;;;11.98;6.95;;;2.80;99.90;;;;;;4952235;28;20031;-78
2023/04/14 00:40:21;;;;;;;11.93;6.78;;;2.80;99.90;;;;;;4936949;28;20041;-77
2023/04/14 00:42:47;;;;;;;11.38;6.57;;;2.80;99.90;;;;;;4947442;29;20054;-78
2023/04/14 00:45:14;;;;;;;10.20;6.88;;;2.80;99.90;;;;;;4966251;28;20039;-78
2023/04/14 00:47:45;;;;;;;11.07;6.85;;;2.90;99.90;;;;;;5012486;28;20105;-78
2023/04/14 00:50:12;;;;;;;11.77;6.90;;;2.90;99.90;;;;;;4936608;28;20062;-78
2023/04/14 00:52:38;;;;;;;12.80;7.63;;;2.80;99.90;;;;;;4932187;28;20039;-77
2023/04/14 00:55:05;;;;;;;11.90;6.85;;;2.80;99.90;;;;;;4983129;28;20036;-77
2023/04/14 00:57:31;;;;;;;13.43;6.80;;;2.70;99.90;;;;;;4948244;29;20039;-78
2023/04/14 00:59:58;;;;;;;14.82;7.88;;;2.70;99.90;;;;;;4936222;28;20127;-78
2023/04/14 01:02:26;;;;;;;13.77;7.28;;;2.80;99.90;;;;;;4934240;29;20505;-78
2023/04/14 01:04:52;;;;;;;10.43;7.40;;;2.70;99.90;;;;;;4978296;28;20047;-77
2023/04/14 01:07:22;;;;;;;13.27;8.05;;;2.70;99.90;;;;;;4952815;28;20046;-78
2023/04/14 01:09:49;;;;;;;13.45;7.60;;;2.70;99.90;;;;;;4952402;29;20495;-78
2023/04/14 01:12:48;;;;;;;13.52;7.38;;;2.80;99.90;;;;;;4936293;29;20078;-78
2023/04/14 01:15:20;;;;;;;14.52;7.57;;;2.80;99.90;;;;;;4985674;28;20051;-78
2023/04/14 01:18:25;;;;;;;10.43;7.05;;;2.80;99.90;;;;;;4935631;28;20522;-78
2023/04/14 01:20:55;;;;;;;12.45;7.30;;;2.80;99.90;;;;;;4922627;29;20499;-78
2023/04/14 01:23:25;;;;;;;11.43;7.03;;;2.80;99.90;;;;;;5032264;28;20060;-78
2023/04/14 01:26:13;;;;;;;11.70;7.18;;;2.80;99.90;;;;;;4954056;28;20101;-78
2023/04/14 01:28:45;;;;;;;11.32;7.22;;;2.80;99.90;;;;;;4962873;28;20135;-78
2023/04/14 01:31:23;;;;;;;9.15;6.43;;;2.80;99.90;;;;;;4989163;28;20043;-77
2023/04/14 01:34:05;;;;;;;10.15;6.43;;;2.80;99.90;;;;;;4948365;28;20062;-78
2023/04/14 01:36:40;;;;;;;7.85;3.38;;;2.80;99.90;;;;;;4926928;28;20098;-78
2023/04/14 01:39:13;;;;;;;13.13;6.38;;;2.80;99.90;;;;;;4950097;29;20062;-78
2023/04/14 01:41:43;;;;;;;11.40;6.30;;;2.80;99.90;;;;;;4925419;28;20066;-78
2023/04/14 01:44:10;;;;;;;10.18;6.45;;;2.90;99.90;;;;;;4917703;29;20101;-77
2023/04/14 01:46:36;;;;;;;10.20;5.60;;;3.00;99.90;;;;;;4960396;28;20051;-77
2023/04/14 01:49:02;;;;;;;11.80;5.90;;;3.10;99.90;;;;;;4933454;29;20089;-77
2023/04/14 01:51:30;;;;;;;11.80;6.18;;;3.10;99.90;;;;;;4941489;28;20407;-78
2023/04/14 01:53:57;;;;;;;6.25;3.53;;;3.20;99.90;;;;;;4917095;29;20048;-78
2023/04/14 01:56:23;;;;;;;11.88;5.50;;;3.20;99.90;;;;;;4924213;29;20464;-78
2023/04/14 01:58:53;;;;;;;11.55;6.30;;;3.20;99.90;;;;;;4924367;28;20690;-78
2023/04/14 02:01:19;;;;;;;8.68;5.80;;;3.20;99.90;;;;;;4932833;28;20093;-78
2023/04/14 02:03:48;;;;;;;11.25;5.47;;;3.20;99.90;;;;;;4932585;28;20082;-78
2023/04/14 02:06:15;;;;;;;8.95;5.45;;;3.30;99.90;;;;;;4925740;28;20047;-78
2023/04/14 02:08:42;;;;;;;10.25;6.00;;;3.30;99.90;;;;;;4936271;28;20051;-78
2023/04/14 02:11:10;;;;;;;9.88;5.97;;;3.40;99.90;;;;;;4936123;28;20039;-78
2023/04/14 02:13:39;;;;;;;9.02;5.28;;;3.40;99.90;;;;;;4935958;28;20055;-78
2023/04/14 02:16:09;;;;;;;10.07;5.40;;;3.40;99.90;;;;;;4937619;29;20036;-78
2023/04/14 02:18:38;;;;;;;10.55;5.40;;;3.40;99.90;;;;;;4923493;28;20122;-78
2023/04/14 02:21:04;;;;;;;8.18;4.72;;;3.40;99.90;;;;;;4935765;29;20169;-78
2023/04/14 02:23:30;;;;;;;11.13;5.93;;;3.40;99.90;;;;;;4936290;28;20108;-78
2023/04/14 02:26:01;;;;;;;10.02;4.85;;;3.40;99.90;;;;;;4928390;28;20130;-77
2023/04/14 02:28:34;;;;;;;9.00;5.00;;;3.40;99.90;;;;;;4940961;28;20491;-78
2023/04/14 02:31:06;;;;;;;9.13;5.40;;;3.40;99.90;;;;;;4954838;28;20058;-78
2023/04/14 02:33:35;;;;;;;4.75;3.33;;;3.30;99.90;;;;;;4930032;28;20044;-78
2023/04/14 02:36:08;;;;;;;12.65;6.28;;;3.20;99.90;;;;;;4934020;28;20044;-78
2023/04/14 02:38:37;;;;;;;7.55;4.93;;;3.20;99.90;;;;;;4946110;28;20566;-78
2023/04/14 02:41:10;;;;;;;10.60;5.10;;;3.10;99.90;;;;;;4936908;29;20046;-78
2023/04/14 02:44:00;;;;;;;8.85;5.82;;;3.00;99.90;;;;;;4933741;28;20105;-78
2023/04/14 02:46:28;;;;;;;10.43;6.15;;;3.00;99.90;;;;;;4926107;28;20537;-78
2023/04/14 02:48:55;;;;;;;11.43;6.72;;;2.90;99.90;;;;;;4939889;28;20376;-78
2023/04/14 02:51:23;;;;;;;14.00;6.15;;;2.90;99.90;;;;;;5023495;28;20051;-78
2023/04/14 02:53:49;;;;;;;14.40;6.57;;;2.80;99.90;;;;;;4958401;28;20047;-78
2023/04/14 02:56:15;;;;;;;11.30;6.72;;;2.70;99.90;;;;;;4989673;28;20065;-78
2023/04/14 02:58:41;;;;;;;8.48;2.97;;;2.60;99.90;;;;;;4957075;28;20070;-78
2023/04/14 03:01:07;;;;;;;9.90;6.47;;;2.50;99.90;;;;;;4955304;29;20050;-78
2023/04/14 03:03:36;;;;;;;10.05;6.60;;;2.50;99.90;;;;;;4932656;28;20703;-78
2023/04/14 03:06:05;;;;;;;12.35;7.30;;;2.50;99.90;;;;;;4990288;28;20048;-77
2023/04/14 03:08:31;;;;;;;11.52;7.43;;;2.40;99.90;;;;;;4940096;28;20126;-78
2023/04/14 03:10:59;;;;;;;12.32;7.57;;;2.40;99.90;;;;;;4940603;28;20506;-78
2023/04/14 03:13:27;;;;;;;9.50;7.10;;;2.30;99.90;;;;;;4984216;28;20780;-76
2023/04/14 03:15:55;;;;;;;12.38;7.25;;;2.20;99.90;;;;;;4976740;28;20039;-77
2023/04/14 03:18:21;;;;;;;11.73;7.15;;;2.20;99.90;;;;;;4948179;28;20044;-78
2023/04/14 03:20:49;;;;;;;10.82;7.90;;;2.20;99.90;;;;;;4944016;28;20032;-77
2023/04/14 03:23:17;;;;;;;12.30;8.00;;;2.10;99.90;;;;;;4960091;28;20166;-77
2023/04/14 03:25:45;;;;;;;11.45;4.20;;;2.10;99.90;;;;;;4965300;28;20043;-78
2023/04/14 03:28:14;;;;;;;13.80;8.13;;;2.10;99.90;;;;;;4943906;28;20045;-78
2023/04/14 03:30:45;;;;;;;5.80;3.60;;;2.00;99.90;;;;;;5016865;28;20039;-78
2023/04/14 03:33:15;;;;;;;13.30;7.57;;;2.00;99.90;;;;;;5008821;28;20517;-78
2023/04/14 03:35:45;;;;;;;14.48;7.82;;;2.00;99.90;;;;;;4992988;28;20408;-78
2023/04/14 03:38:11;;;;;;;15.63;8.07;;;2.00;99.90;;;;;;4959065;28;20046;-78
2023/04/14 03:40:40;;;;;;;12.02;7.97;;;2.10;99.90;;;;;;4927175;28;20130;-78
2023/04/14 03:43:11;;;;;;;11.68;7.25;;;2.00;99.90;;;;;;5005532;28;20037;-78
2023/04/14 03:45:38;;;;;;;13.25;7.47;;;2.00;99.90;;;;;;4956029;28;20039;-78
2023/04/14 03:48:07;;;;;;;11.98;7.88;;;2.00;99.90;;;;;;4935826;28;20035;-78
2023/04/14 03:50:36;;;;;;;12.63;8.02;;;2.10;99.90;;;;;;4927362;28;20040;-78
2023/04/14 03:53:04;;;;;;;4.85;3.20;;;2.10;99.90;;;;;;5003212;28;20482;-78
2023/04/14 03:55:32;;;;;;;8.73;4.03;;;2.00;99.90;;;;;;4969446;28;20050;-78
2023/04/14 03:58:00;;;;;;;12.10;7.20;;;2.10;99.90;;;;;;4936796;28;20407;-78
2023/04/14 04:00:27;;;;;;;13.52;8.68;;;2.10;99.90;;;;;;4927061;28;20511;-78
2023/04/14 04:02:54;;;;;;;15.63;8.48;;;2.10;99.90;;;;;;4996939;28;20096;-77
2023/04/14 04:05:21;;;;;;;13.10;8.57;;;2.10;99.90;;;;;;4979982;28;20039;-78
2023/04/14 04:07:52;;;;;;;12.25;7.70;;;2.10;99.90;;;;;;4936473;28;20043;-78
2023/04/14 04:10:20;;;;;;;12.02;8.02;;;2.10;99.90;;;;;;4941930;28;20734;-78
2023/04/14 04:12:47;;;;;;;8.95;4.50;;;2.00;99.90;;;;;;4948565;28;20122;-78
2023/04/14 04:15:13;;;;;;;12.13;8.30;;;2.00;99.90;;;;;;4918124;29;20463;-78
2023/04/14 04:17:40;;;;;;;12.45;8.07;;;2.00;99.90;;;;;;4936029;28;20035;-77
2023/04/14 04:20:13;;;;;;;15.15;8.27;;;1.90;99.90;;;;;;4934785;28;20046;-78
2023/04/14 04:22:41;;;;;;;10.32;3.75;;;1.90;99.90;;;;;;4983942;28;20048;-78
2023/04/14 04:25:10;;;;;;;16.30;9.02;;;1.80;99.90;;;;;;5006048;28;20132;-78
2023/04/14 04:27:36;;;;;;;15.10;8.85;;;1.70;99.90;;;;;;4945819;28;20500;-78
2023/04/14 04:30:06;;;;;;;11.52;9.50;;;1.70;99.90;;;;;;4935016;28;20042;-78
2023/04/14 04:32:32;;;;;;;14.77;9.48;;;1.70;99.90;;;;;;5017822;28;20402;-78
2023/04/14 04:34:58;;;;;;;11.43;8.77;;;1.70;99.90;;;;;;4967023;28;20082;-78
2023/04/14 04:37:27;;;;;;;13.45;8.98;;;1.80;99.90;;;;;;4921736;29;20118;-78
2023/04/14 04:39:56;;;;;;;14.23;9.10;;;1.80;99.90;;;;;;4971813;28;20039;-77
2023/04/14 04:42:22;;;;;;;15.18;9.27;;;1.80;99.90;;;;;;5016746;28;20056;-77
2023/04/14 04:44:48;;;;;;;12.52;9.60;;;1.90;99.90;;;;;;4972795;28;20043;-78
2023/04/14 04:47:14;;;;;;;10.15;4.13;;;2.00;99.90;;;;;;4937470;29;20043;-78
2023/04/14 04:49:40;;;;;;;9.55;4.30;;;2.00;99.90;;;;;;4985006;28;20044;-78
2023/04/14 04:52:05;;;;;;;7.40;3.90;;;2.00;99.90;;;;;;5016250;28;20041;-78
2023/04/14 04:54:31;;;;;;;14.30;10.07;;;1.90;99.90;;;;;;4992559;28;20540;-78
2023/04/14 04:56:57;;;;;;;14.20;10.55;;;1.90;99.90;;;;;;4943816;28;20039;-77
2023/04/14 04:59:23;;;;;;;14.82;10.43;;;1.90;99.90;;;;;;4933621;28;20039;-77
2023/04/14 05:01:49;;;;;;;8.85;4.43;;;2.00;99.90;;;;;;4983832;28;20043;-77
2023/04/14 05:04:18;;;;;;;12.10;9.40;;;1.90;99.90;;;;;;4967949;28;20047;-77
2023/04/14 05:06:43;;;;;;;14.07;10.10;;;1.90;99.90;;;;;;4938905;28;20040;-78
2023/04/14 05:09:09;;;;;;;13.02;9.50;;;2.00;99.90;;;;;;4954599;29;20126;-78
2023/04/14 05:11:37;;;;;;;15.90;10.40;;;2.00;99.90;;;;;;5004117;28;20416;-78
2023/04/14 05:14:03;;;;;;;7.78;4.72;;;2.10;99.90;;;;;;4975447;28;20040;-77
2023/04/14 05:16:29;;;;;;;14.13;10.50;;;2.20;99.90;;;;;;4938850;28;20415;-78
2023/04/14 05:18:55;;;;;;;16.05;11.52;;;2.20;99.90;;;;;;4998531;28;20048;-78
2023/04/14 05:21:21;;;;;;;12.18;10.43;;;2.20;99.90;;;;;;4948798;28;20047;-78
2023/04/14 05:23:47;;;;;;;9.20;4.63;;;2.30;99.90;;;;;;4936765;28;20041;-78
2023/04/14 05:26:13;;;;;;;14.18;11.60;;;2.30;99.90;;;;;;4972878;28;20052;-78
2023/04/14 05:28:40;;;;;;;14.35;11.90;;;2.30;99.90;;;;;;4956633;28;20100;-78
2023/04/14 05:31:06;;;;;;;10.07;5.43;;;2.30;99.90;;;;;;4924472;28;20050;-78
2023/04/14 05:33:35;;;;;;;14.75;12.15;;;2.30;99.90;;;;;;4934076;28;20043;-78
2023/04/14 05:36:01;;;;;;;14.55;11.25;;;2.30;99.90;;;;;;4936968;29;20062;-78
2023/04/14 05:38:27;;;;;;;11.15;5.32;;;2.30;99.90;;;;;;4936572;29;20039;-78
2023/04/14 05:40:52;;;;;;;16.95;13.35;;;2.30;99.90;;;;;;4926150;28;20035;-78
2023/04/14 05:43:18;;;;;;;15.00;12.75;;;2.30;99.90;;;;;;4945107;28;20124;-77
2023/04/14 05:45:47;;;;;;;14.07;11.57;;;2.30;99.90;;;;;;5027001;28;20045;-77
2023/04/14 05:48:15;;;;;;;12.45;5.57;;;2.30;99.90;;;;;;5016648;28;20078;-78
2023/04/14 05:50:41;;;;;;;13.80;12.20;;;2.30;99.90;;;;;;4983818;28;20036;-78
2023/04/14 05:53:07;;;;;;;14.25;12.00;;;2.30;99.90;;;;;;4981950;28;20097;-77
2023/04/14 05:55:33;;;;;;;14.98;12.07;;;2.30;99.90;;;;;;5021091;28;20041;-78
2023/04/14 05:57:58;;;;;;;14.85;12.43;;;2.30;99.90;;;;;;5028467;28;20557;-77
2023/04/14 06:00:24;;;;;;;15.13;13.00;;;2.40;99.90;;;;;;4995432;28;20043;-76
2023/04/14 06:02:50;;;;;;;7.13;5.30;;;2.40;99.90;;;;;;4920830;28;20101;-78
2023/04/14 06:05:17;;;;;;;15.20;13.57;;;2.40;99.90;;;;;;4969308;28;20099;-77
2023/04/14 06:07:42;;;;;;;19.00;13.98;;;2.50;99.90;;;;;;4937509;28;20039;-77
2023/04/14 06:10:16;;;;;;;13.90;12.43;;;2.60;99.90;;;;;;4934465;28;20055;-78
2023/04/14 06:12:45;;;;;;;18.25;14.82;;;2.60;99.90;;;;;;4925272;28;20098;-80
2023/04/14 06:15:13;;;;;;;18.65;14.38;;;2.80;99.90;;;;;;4974631;28;20047;-77
2023/04/14 06:17:38;;;;;;;18.73;14.98;;;2.90;99.90;;;;;;4943274;28;20286;-77
2023/04/14 06:20:10;;;;;;;16.52;14.93;;;3.00;99.90;;;;;;4935163;28;20062;-76
2023/04/14 06:22:42;;;;;;;18.75;14.75;;;3.10;99.90;;;;;;4959121;28;20035;-76
2023/04/14 06:25:09;;;;;;;14.23;12.68;;;3.30;99.90;;;;;;4937270;28;20582;-77
2023/04/14 06:27:50;;;;;;;15.88;12.32;;;3.40;99.90;;;;;;4981900;28;20052;-79
2023/04/14 06:30:18;;;;;;;16.50;11.55;;;3.50;99.90;;;;;;4954024;28;20122;-76
2023/04/14 06:32:55;;;;;;;15.70;11.57;;;3.60;99.90;;;;;;4957936;28;20146;-76
2023/04/14 06:35:28;;;;;;;14.80;10.40;;;3.80;99.90;;;;;;4965501;28;20502;-75
2023/04/14 06:38:03;;;;;;;14.85;11.68;;;3.90;99.90;;;;;;4972412;28;20078;-76
2023/04/14 06:40:33;;;;;;;16.52;12.73;;;4.10;99.90;;;;;;4940676;28;20043;-76
2023/04/14 06:42:59;;;;;;;15.73;13.02;;;4.20;99.90;;;;;;4946340;28;20040;-75
2023/04/14 06:45:25;;;;;;;14.23;11.80;;;4.30;99.90;;;;;;4950790;28;20039;-75
2023/04/14 06:47:50;;;;;;;14.88;12.43;;;4.40;99.90;;;;;;4938239;29;20099;-73
2023/04/14 06:50:19;;;;;;;14.63;11.15;;;4.50;99.90;;;;;;4962988;28;20094;-75
2023/04/14 06:52:45;;;;;;;12.93;9.82;;;4.70;99.90;;;;;;5030197;28;20033;-75
2023/04/14 06:55:10;;;;;;;15.43;11.70;;;4.80;99.90;;;;;;4945609;28;20046;-75
2023/04/14 06:57:36;;;;;;;13.20;10.50;;;4.90;99.90;;;;;;4930189;28;20126;-75
2023/04/14 07:00:03;;;;;;;14.15;9.75;;;5.00;99.90;;;;;;4946051;29;20051;-74
2023/04/14 07:02:28;;;;;;;12.85;10.18;;;5.10;99.90;;;;;;4936778;28;20043;-75
2023/04/14 07:04:54;;;;;;;13.55;10.23;;;5.30;99.90;;;;;;4929682;28;20131;-75
2023/04/14 07:07:20;;;;;;;14.07;9.50;;;5.50;99.90;;;;;;4931629;28;20056;-74
2023/04/14 07:09:45;;;;;;;15.10;10.10;;;5.70;99.90;;;;;;4943056;29;20039;-74
2023/04/14 07:12:12;;;;;;;11.50;8.30;;;5.80;99.90;;;;;;4933108;28;20087;-74
2023/04/14 07:14:39;;;;;;;11.05;8.45;;;6.00;99.90;;;;;;4948733;28;20047;-74
2023/04/14 07:17:05;;;;;;;11.88;8.30;;;6.10;99.90;;;;;;5027112;28;20048;-74
2023/04/14 07:19:31;;;;;;;11.65;8.30;;;6.30;99.90;;;;;;4939219;29;20051;-74
2023/04/14 07:21:57;;;;;;;10.73;8.38;;;6.40;99.90;;;;;;4940148;29;20052;-74
2023/04/14 07:24:22;;;;;;;14.80;9.38;;;6.50;99.90;;;;;;4952961;29;20156;-74
2023/04/14 07:26:48;;;;;;;13.73;8.80;;;6.60;99.90;;;;;;4936518;29;20040;-74
2023/04/14 07:29:14;;;;;;;11.82;7.78;;;6.80;99.90;;;;;;4947153;28;20504;-74
2023/04/14 07:31:40;;;;;;;10.60;7.68;;;6.90;99.90;;;;;;5012176;28;20078;-74
2023/04/14 07:34:06;;;;;;;13.02;8.57;;;7.10;99.90;;;;;;4951505;29;20082;-74
2023/04/14 07:36:32;;;;;;;12.38;8.40;;;7.20;99.90;;;;;;4940991;28;20048;-75
2023/04/14 07:38:57;;;;;;;13.35;7.97;;;7.30;99.90;;;;;;4931762;29;20446;-74
2023/04/14 07:41:25;;;;;;;9.68;6.00;;;7.40;99.90;;;;;;4935941;29;20442;-74
2023/04/14 07:43:54;;;;;;;15.52;7.22;;;7.50;99.90;;;;;;4935406;28;20083;-74
2023/04/14 07:46:20;;;;;;;14.48;7.97;;;7.60;99.90;;;;;;4932873;29;20109;-75
2023/04/14 07:48:46;;;;;;;13.30;6.63;;;7.70;99.90;;;;;;4932534;29;20050;-76
2023/04/14 07:51:12;;;;;;;10.00;7.38;;;7.80;99.90;;;;;;4917184;28;20047;-76
2023/04/14 07:53:41;;;;;;;11.82;6.55;;;7.90;99.90;;;;;;4968264;28;20213;-76
2023/04/14 07:56:07;;;;;;;10.10;6.07;;;8.00;99.90;;;;;;4946716;28;20123;-77
2023/04/14 07:58:33;;;;;;;11.48;6.63;;;8.20;99.90;;;;;;4931535;28;20583;-77
2023/04/14 08:00:58;;;;;;;11.57;6.25;;;8.30;99.90;;;;;;4935312;29;20518;-76
2023/04/14 08:03:24;;;;;;;11.13;5.70;;;8.50;99.90;;;;;;4943216;29;20090;-78
2023/04/14 08:05:51;;;;;;;10.15;5.20;;;8.60;99.90;;;;;;4949709;28;20043;-76
2023/04/14 08:08:17;;;;;;;11.93;5.82;;;8.70;99.90;;;;;;4947434;29;20085;-77
2023/04/14 08:10:42;;;;;;;10.60;4.78;;;8.80;99.90;;;;;;4921138;28;20036;-77
2023/04/14 08:13:09;;;;;;;10.50;5.57;;;8.90;99.90;;;;;;4928256;29;20407;-77
2023/04/14 08:15:34;;;;;;;10.57;6.53;;;9.00;99.90;;;;;;4941337;28;20047;-77
2023/04/14 08:18:01;;;;;;;11.32;6.80;;;9.20;99.90;;;;;;4926779;29;20137;-77
2023/04/14 08:20:26;;;;;;;8.75;5.50;;;9.30;99.90;;;;;;4936141;28;20043;-77
2023/04/14 08:22:52;;;;;;;9.98;5.18;;;9.40;99.90;;;;;;4936656;29;20050;-77
2023/04/14 08:25:18;;;;;;;10.57;5.78;;;9.50;99.90;;;;;;4935272;29;20442;-76
2023/04/14 08:27:43;;;;;;;10.90;5.60;;;9.70;99.90;;;;;;4936028;29;20055;-77
2023/04/14 08:30:18;;;;;;;9.63;5.18;;;9.80;99.90;;;;;;4932919;29;20039;-76
2023/04/14 08:32:46;;;;;;;12.90;5.43;;;10.00;99.90;;;;;;4935339;29;20091;-76
2023/04/14 08:35:11;;;;;;;9.32;4.30;;;10.60;99.90;;;;;;4935195;29;20043;-78
2023/04/14 08:37:49;;;;;;;9.93;4.50;;;11.60;99.90;;;;;;4937900;29;20471;-80
2023/04/14 08:40:19;;;;;;;11.05;4.43;;;12.70;99.90;;;;;;4933544;29;20036;-77
2023/04/14 08:42:45;;;;;;;8.00;3.78;;;13.70;99.90;;;;;;4932111;28;20090;-79
2023/04/14 08:45:11;;;;;;;8.02;3.88;;;14.40;99.90;;;;;;4949761;28;20468;-79
2023/04/14 08:47:39;;;;;;;6.68;3.53;;;15.00;99.90;;;;;;4939876;28;20043;-80
2023/04/14 08:50:08;;;;;;;8.07;3.92;;;15.60;99.90;;;;;;4919652;28;20078;-79
2023/04/14 08:52:39;;;;;;;9.07;3.90;;;16.10;99.90;;;;;;4919378;28;20087;-81
2023/04/14 08:55:06;;;;;;;10.13;4.10;;;16.30;99.90;;;;;;4979373;28;20037;-80
2023/04/14 08:57:33;;;;;;;7.82;3.60;;;16.60;99.90;;;;;;4937752;28;20048;-78
2023/04/14 09:00:03;;;;;;;8.52;3.58;;;17.00;99.90;;;;;;4949988;28;20051;-79
2023/04/14 09:02:30;;;;;;;7.57;3.20;;;17.40;99.90;;;;;;4926512;28;20059;-80
2023/04/14 09:04:57;;;;;;;7.72;3.20;;;17.60;87.30;;;;;;4967140;28;20041;-80
2023/04/14 09:07:24;;;;;;;8.73;3.38;;;17.70;91.50;;;;;;4980397;28;20029;-79
2023/04/14 09:09:50;;;;;;;8.63;3.30;;;17.80;95.50;;;;;;4932422;28;20126;-79
2023/04/14 09:12:18;;;;;;;8.25;3.10;;;18.00;96.10;;;;;;4927403;28;20427;-79
2023/04/14 09:14:47;;;;;;;7.07;2.90;;;18.10;86.10;;;;;;4916896;28;20504;-80
2023/04/14 09:17:13;;;;;;;7.78;2.85;;;18.10;83.00;;;;;;4974712;28;20046;-79
2023/04/14 09:19:39;;;;;;;10.18;3.10;;;18.30;78.00;;;;;;4959300;28;20068;-80
2023/04/14 09:22:05;;;;;;;7.60;2.83;;;18.50;77.30;;;;;;5006185;28;20037;-80
2023/04/14 09:24:33;;;;;;;9.38;3.53;;;18.50;70.20;;;;;;4979350;28;20133;-79
2023/04/14 09:27:06;;;;;;;5.82;2.80;;;18.60;66.00;;;;;;4919815;29;20048;-80
2023/04/14 09:29:32;;;;;;;7.47;2.70;;;18.40;64.10;;;;;;4918684;29;20066;-79
2023/04/14 09:31:58;;;;;;;6.53;2.40;;;18.10;69.30;;;;;;4928548;28;20507;-81
2023/04/14 09:34:24;;;;;;;6.00;2.42;;;18.10;72.70;;;;;;4944072;29;20048;-80
2023/04/14 09:37:05;;;;;;;6.28;2.67;;;18.30;73.20;;;;;;4935519;29;20036;-81
2023/04/14 09:39:32;;;;;;;7.68;2.47;;;18.50;70.20;;;;;;4917071;28;20054;-79
2023/04/14 09:41:59;;;;;;;7.25;2.25;;;18.70;71.60;;;;;;5008504;28;20163;-80
2023/04/14 09:44:28;;;;;;;6.28;2.08;;;18.80;69.70;;;;;;4926941;28;20043;-79
2023/04/14 09:47:04;;;;;;;8.02;2.30;;;19.00;64.70;;;;;;4960366;28;20496;-78
2023/04/14 09:49:30;;;;;;;6.15;2.63;;;19.10;65.50;;;;;;4961743;28;20037;-77
2023/04/14 09:52:04;;;;;;;4.60;2.00;;;19.10;68.40;;;;;;4955284;28;20120;-77
2023/04/14 09:54:36;;;;;;;6.22;2.65;;;19.20;66.70;;;;;;4940710;28;20052;-77
2023/04/14 09:57:01;;;;;;;6.20;2.42;;;19.40;69.60;;;;;;5009730;28;20396;-78
2023/04/14 09:59:36;;;;;;;5.47;2.33;;;19.30;65.60;;;;;;4931686;29;20040;-77
2023/04/14 10:02:07;;;;;;;4.80;1.80;;;19.00;65.10;;;;;;4936955;28;20051;-77
2023/04/14 10:04:34;;;;;;;6.43;2.20;;;18.60;66.60;;;;;;4917930;28;20090;-77
2023/04/14 10:07:00;;;;;;;6.65;2.40;;;18.10;67.40;;;;;;4955247;28;20511;-77
2023/04/14 10:09:27;;;;;;;6.40;2.03;;;18.10;66.50;;;;;;4914044;29;20044;-77
2023/04/14 10:12:12;;;;;;;4.45;2.17;;;18.00;65.60;;;;;;4928168;29;20047;-77
2023/04/14 10:14:42;;;;;;;7.60;2.45;;;17.80;64.80;;;;;;4943534;28;20126;-77
2023/04/14 10:17:08;;;;;;;7.50;2.92;;;17.30;67.40;;;;;;4945409;28;20510;-76
2023/04/14 10:19:35;;;;;;;7.15;2.70;;;16.60;66.80;;;;;;4950908;28;20091;-77
2023/04/14 10:22:01;;;;;;;6.82;2.90;;;16.30;68.10;;;;;;4931537;28;20114;-76
2023/04/14 10:24:27;;;;;;;7.07;3.03;;;16.60;70.20;;;;;;4972569;28;20720;-76
2023/04/14 10:26:53;;;;;;;7.78;3.20;;;17.30;64.70;;;;;;4946815;28;20415;-77
2023/04/14 10:29:19;;;;;;;6.13;2.88;;;17.60;68.80;;;;;;4989473;28;20037;-76
2023/04/14 10:32:00;;;;;;;5.50;2.70;;;17.60;68.90;;;;;;4949986;28;20046;-77
2023/04/14 10:34:28;;;;;;;7.07;2.97;;;17.70;69.80;;;;;;4935065;28;20096;-77
2023/04/14 10:36:54;;;;;;;6.50;2.80;;;18.00;67.40;;;;;;4966894;28;20412;-77
2023/04/14 10:39:23;;;;;;;5.38;2.63;;;18.30;68.10;;;;;;4948780;28;20049;-75
2023/04/14 10:41:51;;;;;;;7.07;2.40;;;18.70;62.20;;;;;;4964892;28;20046;-75
2023/04/14 10:44:30;;;;;;;7.07;3.00;;;18.80;64.70;;;;;;4942218;28;20051;-75
2023/04/14 10:46:56;;;;;;;5.88;2.55;;;19.20;65.00;;;;;;4930497;28;20118;-75
2023/04/14 10:49:28;;;;;;;6.55;2.42;;;19.50;65.10;;;;;;5028518;28;20497;-75
2023/04/14 10:51:57;;;;;;;4.55;2.25;;;19.40;64.80;;;;;;4990112;28;20046;-75
2023/04/14 10:54:23;;;;;;;6.43;2.70;;;19.50;64.20;;;;;;4949757;29;20481;-75
2023/04/14 10:57:11;;;;;;;8.88;2.85;;;19.20;63.50;;;;;;4947845;29;20129;-75
2023/04/14 10:59:46;;;;;;;6.50;2.85;;;18.70;63.50;;;;;;4943578;28;20053;-75
2023/04/14 11:02:28;;;;;;;5.90;2.58;;;18.10;63.10;;;;;;4952501;29;20495;-75
2023/04/14 11:05:03;;;;;;;7.07;2.75;;;17.60;65.10;;;;;;4952134;29;20059;-75
2023/04/14 11:07:30;;;;;;;7.40;2.83;;;17.30;65.50;;;;;;4952726;29;20050;-75
2023/04/14 11:10:21;;;;;;;5.72;2.97;;;17.40;66.50;;;;;;4947161;29;20522;-75
2023/04/14 11:12:48;;;;;;;6.70;2.30;;;18.10;61.40;;;;;;4942292;29;20131;-75
2023/04/14 11:15:15;;;;;;;6.43;2.30;;;18.60;65.40;;;;;;4952026;29;20126;-75
2023/04/14 11:17:42;;;;;;;7.80;2.60;;;19.10;65.20;;;;;;4949886;28;20411;-75
2023/04/14 11:20:15;;;;;;;6.70;2.10;;;19.50;62.10;;;;;;4949251;29;20464;-75
2023/04/14 11:22:44;;;;;;;7.72;2.30;;;20.00;59.10;;;;;;4952180;29;20039;-75
2023/04/14 11:25:20;;;;;;;4.93;2.20;;;20.20;60.70;;;;;;4936132;28;20046;-75
2023/04/14 11:27:49;;;;;;;4.82;2.20;;;20.30;58.70;;;;;;4949682;29;20039;-75
2023/04/14 11:30:16;;;;;;;5.97;2.17;;;20.10;60.20;;;;;;4941117;29;20189;-75
2023/04/14 11:32:49;;;;;;;5.45;2.25;;;20.30;60.40;;;;;;4951972;28;20055;-75
2023/04/14 11:35:16;;;;;;;5.22;2.00;;;20.80;60.80;;;;;;4952074;29;20074;-75
2023/04/14 11:37:42;;;;;;;6.72;2.10;;;21.20;54.90;;;;;;4951885;29;20047;-75
2023/04/14 11:40:13;;;;;;;5.65;2.10;;;21.30;55.60;;;;;;4942601;28;20481;-75
2023/04/14 11:42:46;;;;;;;6.70;2.60;;;21.40;58.10;;;;;;4952117;29;20149;-75
2023/04/14 11:45:14;;;;;;;;;;;21.50;57.20;;;;;;4945293;28;20043;-75
2023/04/14 11:47:48;;;;;;;8.13;2.20;;;21.80;53.10;;;;;;4936623;28;19922;-75
2023/04/14 11:50:16;;;;;;;5.22;2.30;;;21.90;55.30;;;;;;4990286;28;20051;-75
2023/04/14 11:52:47;;;;;;;4.72;2.47;;;21.90;56.70;;;;;;4979328;28;20048;-76
2023/04/14 11:55:14;;;;;;;5.00;2.42;;;22.10;57.80;;;;;;4959640;28;20040;-76
2023/04/14 11:57:45;;;;;;;7.72;2.55;;;22.10;57.40;;;;;;4963822;28;20051;-76
2023/04/14 12:00:15;;;;;;;8.80;2.30;;;22.20;55.50;;;;;;4955859;28;20093;-76
2023/04/14 12:02:44;;;;;;;6.72;2.28;;;22.30;55.10;;;;;;4966951;28;20073;-76
2023/04/14 12:05:12;;;;;;;6.18;2.40;;;22.50;55.50;;;;;;4925926;28;20083;-76
2023/04/14 12:07:40;;;;;;;4.45;2.10;;;22.80;55.40;;;;;;4918572;28;20500;-77
2023/04/14 12:10:07;;;;;;;7.25;2.00;;;23.10;54.70;;;;;;4933732;28;20043;-77
2023/04/14 12:12:32;;;;;;;6.03;2.10;;;23.10;55.60;;;;;;4936178;28;20488;-77
2023/04/14 12:14:58;;;;;;;4.43;1.60;;;23.10;56.20;;;;;;4964266;28;20051;-76
2023/04/14 12:17:25;;;;;;;5.85;1.95;;;22.90;54.80;;;;;;4994867;28;20068;-77
2023/04/14 12:19:53;;;;;;;5.25;2.10;;;23.10;53.90;;;;;;4932631;28;20040;-76
2023/04/14 12:22:27;;;;;;;6.93;1.70;;;22.60;52.90;;;;;;4943567;28;20495;-77
2023/04/14 12:24:54;;;;;;;7.05;2.00;;;21.20;50.40;;;;;;4935808;29;20178;-78
2023/04/14 12:27:22;;;;;;;4.97;1.88;;;20.10;54.70;;;;;;4934014;29;20094;-78
2023/04/14 12:29:50;;;;;;;5.50;1.80;;;19.30;56.00;;;;;;4923419;28;20035;-78
2023/04/14 12:32:21;;;;;;;6.88;2.05;;;19.00;56.10;;;;;;4939594;29;20122;-77
2023/04/14 12:34:56;;;;;;;4.50;1.65;;;19.90;58.40;;;;;;4918146;28;20047;-78
2023/04/14 12:37:26;;;;;;;5.93;2.20;;;20.70;56.30;;;;;;4909702;28;20522;-77
2023/04/14 12:39:58;;;;;;;7.00;2.50;;;21.40;54.10;;;;;;4922829;28;20134;-78
2023/04/14 12:42:41;;;;;;;5.15;2.20;;;22.00;55.40;;;;;;4910988;28;20048;-76
2023/04/14 12:45:08;;;;;;;6.43;2.13;;;22.00;53.10;;;;;;4933808;28;20504;-79
2023/04/14 12:47:35;;;;;;;5.53;2.00;;;21.50;55.30;;;;;;4925007;28;20126;-79
2023/04/14 12:50:27;;;;;;;5.13;2.20;;;21.60;51.60;;;;;;4936606;28;20044;-79
2023/04/14 12:52:56;;;;;;;5.57;2.40;;;21.40;47.60;;;;;;4936676;28;20045;-79